sensor_id;sensor_type;location;lat;lon;timestamp;P1;durP1;ratioP1;P2;durP2;ratioP2
78844;SDS011;68195;50.854;2.860;2023-07-31T00:01:20;11.75;;;3.80;;
78844;SDS011;68195;50.854;2.860;2023-07-31T00:03:48;13.88;;;4.18;;
78844;SDS011;68195;50.854;2.860;2023-07-31T00:06:16;13.05;;;4.68;;
78844;SDS011;68195;50.854;2.860;2023-07-31T00:08:44;12.15;;;4.88;;
78844;SDS011;68195;50.854;2.860;2023-07-31T00:11:14;17.02;;;5.45;;
78844;SDS011;68195;50.854;2.860;2023-07-31T00:13:40;12.98;;;4.78;;
78844;SDS011;68195;50.854;2.860;2023-07-31T00:16:10;13.45;;;5.00;;
78844;SDS011;68195;50.854;2.860;2023-07-31T00:18:38;11.23;;;4.38;;
78844;SDS011;68195;50.854;2.860;2023-07-31T00:21:03;13.27;;;4.32;;
78844;SDS011;68195;50.854;2.860;2023-07-31T00:23:33;11.50;;;4.07;;
78844;SDS011;68195;50.854;2.860;2023-07-31T00:25:59;12.82;;;3.80;;
78844;SDS011;68195;50.854;2.860;2023-07-31T00:28:26;12.48;;;4.93;;
78844;SDS011;68195;50.854;2.860;2023-07-31T00:30:56;11.38;;;3.67;;
78844;SDS011;68195;50.854;2.860;2023-07-31T00:33:23;9.27;;;3.55;;
78844;SDS011;68195;50.854;2.860;2023-07-31T00:35:49;8.93;;;5.00;;
78844;SDS011;68195;50.854;2.860;2023-07-31T00:38:16;10.50;;;3.42;;
78844;SDS011;68195;50.854;2.860;2023-07-31T00:40:45;9.30;;;3.65;;
78844;SDS011;68195;50.854;2.860;2023-07-31T00:43:13;11.93;;;3.95;;
78844;SDS011;68195;50.854;2.860;2023-07-31T00:45:40;12.95;;;4.20;;
78844;SDS011;68195;50.854;2.860;2023-07-31T00:48:10;12.88;;;3.40;;
78844;SDS011;68195;50.854;2.860;2023-07-31T00:50:39;9.88;;;4.13;;
78844;SDS011;68195;50.854;2.860;2023-07-31T00:53:04;13.93;;;4.72;;
78844;SDS011;68195;50.854;2.860;2023-07-31T00:55:32;8.48;;;3.92;;
78844;SDS011;68195;50.854;2.860;2023-07-31T00:58:01;9.60;;;3.72;;
78844;SDS011;68195;50.854;2.860;2023-07-31T01:00:26;7.80;;;4.05;;
78844;SDS011;68195;50.854;2.860;2023-07-31T01:02:51;14.90;;;4.55;;
78844;SDS011;68195;50.854;2.860;2023-07-31T01:05:19;9.45;;;3.35;;
78844;SDS011;68195;50.854;2.860;2023-07-31T01:08:04;9.02;;;3.90;;
78844;SDS011;68195;50.854;2.860;2023-07-31T01:10:41;11.02;;;4.15;;
78844;SDS011;68195;50.854;2.860;2023-07-31T01:13:27;10.10;;;3.60;;
78844;SDS011;68195;50.854;2.860;2023-07-31T01:15:53;10.10;;;4.35;;
78844;SDS011;68195;50.854;2.860;2023-07-31T01:18:24;8.52;;;3.88;;
78844;SDS011;68195;50.854;2.860;2023-07-31T01:20:53;8.65;;;4.38;;
78844;SDS011;68195;50.854;2.860;2023-07-31T01:23:35;12.48;;;3.95;;
78844;SDS011;68195;50.854;2.860;2023-07-31T01:26:11;10.38;;;3.65;;
78844;SDS011;68195;50.854;2.860;2023-07-31T01:31:18;15.60;;;3.55;;
78844;SDS011;68195;50.854;2.860;2023-07-31T01:33:46;7.85;;;3.40;;
78844;SDS011;68195;50.854;2.860;2023-07-31T01:36:12;9.50;;;3.83;;
78844;SDS011;68195;50.854;2.860;2023-07-31T01:38:38;8.88;;;3.42;;
78844;SDS011;68195;50.854;2.860;2023-07-31T01:41:10;10.10;;;3.83;;
78844;SDS011;68195;50.854;2.860;2023-07-31T01:43:38;10.95;;;4.07;;
78844;SDS011;68195;50.854;2.860;2023-07-31T01:46:04;9.88;;;4.13;;
78844;SDS011;68195;50.854;2.860;2023-07-31T01:48:34;7.72;;;3.33;;
78844;SDS011;68195;50.854;2.860;2023-07-31T01:51:02;13.13;;;3.35;;
78844;SDS011;68195;50.854;2.860;2023-07-31T01:53:28;12.43;;;5.18;;
78844;SDS011;68195;50.854;2.860;2023-07-31T01:55:54;9.55;;;3.67;;
78844;SDS011;68195;50.854;2.860;2023-07-31T01:58:22;8.45;;;4.72;;
78844;SDS011;68195;50.854;2.860;2023-07-31T02:00:49;9.02;;;3.25;;
78844;SDS011;68195;50.854;2.860;2023-07-31T02:03:15;7.13;;;3.10;;
78844;SDS011;68195;50.854;2.860;2023-07-31T02:05:46;9.10;;;3.40;;
78844;SDS011;68195;50.854;2.860;2023-07-31T02:08:14;9.32;;;3.40;;
78844;SDS011;68195;50.854;2.860;2023-07-31T02:10:40;8.50;;;3.50;;
78844;SDS011;68195;50.854;2.860;2023-07-31T02:13:09;11.38;;;3.90;;
78844;SDS011;68195;50.854;2.860;2023-07-31T02:15:36;10.30;;;3.78;;
78844;SDS011;68195;50.854;2.860;2023-07-31T02:18:02;8.68;;;3.65;;
78844;SDS011;68195;50.854;2.860;2023-07-31T02:20:32;10.15;;;3.55;;
78844;SDS011;68195;50.854;2.860;2023-07-31T02:23:00;6.95;;;4.18;;
78844;SDS011;68195;50.854;2.860;2023-07-31T02:25:31;10.85;;;4.43;;
78844;SDS011;68195;50.854;2.860;2023-07-31T02:27:58;10.93;;;3.92;;
78844;SDS011;68195;50.854;2.860;2023-07-31T02:30:29;9.93;;;4.20;;
78844;SDS011;68195;50.854;2.860;2023-07-31T02:32:54;8.38;;;4.15;;
78844;SDS011;68195;50.854;2.860;2023-07-31T02:35:19;10.18;;;3.90;;
78844;SDS011;68195;50.854;2.860;2023-07-31T02:37:45;9.27;;;4.07;;
78844;SDS011;68195;50.854;2.860;2023-07-31T02:40:13;7.10;;;3.55;;
78844;SDS011;68195;50.854;2.860;2023-07-31T02:42:40;7.80;;;3.85;;
78844;SDS011;68195;50.854;2.860;2023-07-31T02:45:06;12.35;;;3.13;;
78844;SDS011;68195;50.854;2.860;2023-07-31T02:47:34;9.75;;;3.38;;
78844;SDS011;68195;50.854;2.860;2023-07-31T02:50:00;10.30;;;3.30;;
78844;SDS011;68195;50.854;2.860;2023-07-31T02:52:26;14.10;;;4.20;;
78844;SDS011;68195;50.854;2.860;2023-07-31T02:54:51;20.00;;;4.45;;
78844;SDS011;68195;50.854;2.860;2023-07-31T02:57:17;8.77;;;3.20;;
78844;SDS011;68195;50.854;2.860;2023-07-31T02:59:42;6.82;;;2.85;;
78844;SDS011;68195;50.854;2.860;2023-07-31T03:02:08;12.43;;;3.88;;
78844;SDS011;68195;50.854;2.860;2023-07-31T03:04:33;10.35;;;3.10;;
78844;SDS011;68195;50.854;2.860;2023-07-31T03:06:59;8.73;;;3.20;;
78844;SDS011;68195;50.854;2.860;2023-07-31T03:09:26;8.38;;;2.90;;
78844;SDS011;68195;50.854;2.860;2023-07-31T03:11:52;6.70;;;3.58;;
78844;SDS011;68195;50.854;2.860;2023-07-31T03:14:23;10.15;;;3.85;;
78844;SDS011;68195;50.854;2.860;2023-07-31T03:16:48;7.95;;;3.17;;
78844;SDS011;68195;50.854;2.860;2023-07-31T03:19:14;8.57;;;3.05;;
78844;SDS011;68195;50.854;2.860;2023-07-31T03:21:44;6.38;;;3.20;;
78844;SDS011;68195;50.854;2.860;2023-07-31T03:24:10;5.90;;;2.92;;
78844;SDS011;68195;50.854;2.860;2023-07-31T03:26:38;5.82;;;3.03;;
78844;SDS011;68195;50.854;2.860;2023-07-31T03:29:08;7.10;;;3.13;;
78844;SDS011;68195;50.854;2.860;2023-07-31T03:31:34;6.20;;;2.92;;
78844;SDS011;68195;50.854;2.860;2023-07-31T03:33:59;8.10;;;2.50;;
78844;SDS011;68195;50.854;2.860;2023-07-31T03:36:24;5.43;;;3.25;;
78844;SDS011;68195;50.854;2.860;2023-07-31T03:38:51;5.35;;;2.80;;
78844;SDS011;68195;50.854;2.860;2023-07-31T03:41:22;6.65;;;2.60;;
78844;SDS011;68195;50.854;2.860;2023-07-31T03:43:49;8.25;;;3.35;;
78844;SDS011;68195;50.854;2.860;2023-07-31T03:46:16;6.40;;;2.85;;
78844;SDS011;68195;50.854;2.860;2023-07-31T03:48:44;6.68;;;4.13;;
78844;SDS011;68195;50.854;2.860;2023-07-31T03:51:14;8.27;;;2.95;;
78844;SDS011;68195;50.854;2.860;2023-07-31T03:53:43;6.85;;;3.13;;
78844;SDS011;68195;50.854;2.860;2023-07-31T03:56:09;9.27;;;3.60;;
78844;SDS011;68195;50.854;2.860;2023-07-31T03:58:36;6.78;;;2.95;;
78844;SDS011;68195;50.854;2.860;2023-07-31T04:01:02;6.20;;;2.83;;
78844;SDS011;68195;50.854;2.860;2023-07-31T04:03:30;5.43;;;2.70;;
78844;SDS011;68195;50.854;2.860;2023-07-31T04:05:58;7.95;;;3.60;;
78844;SDS011;68195;50.854;2.860;2023-07-31T04:08:24;6.60;;;3.20;;
78844;SDS011;68195;50.854;2.860;2023-07-31T04:10:54;7.55;;;3.60;;
78844;SDS011;68195;50.854;2.860;2023-07-31T04:13:22;8.25;;;2.70;;
78844;SDS011;68195;50.854;2.860;2023-07-31T04:15:54;6.00;;;2.90;;
78844;SDS011;68195;50.854;2.860;2023-07-31T04:18:24;9.50;;;2.92;;
78844;SDS011;68195;50.854;2.860;2023-07-31T04:20:51;8.65;;;3.30;;
78844;SDS011;68195;50.854;2.860;2023-07-31T04:23:16;8.15;;;3.17;;
78844;SDS011;68195;50.854;2.860;2023-07-31T04:25:41;6.80;;;2.67;;
78844;SDS011;68195;50.854;2.860;2023-07-31T04:28:09;5.25;;;3.10;;
78844;SDS011;68195;50.854;2.860;2023-07-31T04:30:37;10.77;;;3.17;;
78844;SDS011;68195;50.854;2.860;2023-07-31T04:33:02;4.78;;;2.50;;
78844;SDS011;68195;50.854;2.860;2023-07-31T04:35:30;7.05;;;3.17;;
78844;SDS011;68195;50.854;2.860;2023-07-31T04:37:57;7.60;;;2.70;;
78844;SDS011;68195;50.854;2.860;2023-07-31T04:40:27;10.27;;;2.90;;
78844;SDS011;68195;50.854;2.860;2023-07-31T04:42:53;7.78;;;2.90;;
78844;SDS011;68195;50.854;2.860;2023-07-31T04:45:18;4.20;;;2.45;;
78844;SDS011;68195;50.854;2.860;2023-07-31T04:47:44;6.65;;;3.08;;
78844;SDS011;68195;50.854;2.860;2023-07-31T04:50:09;8.65;;;3.17;;
78844;SDS011;68195;50.854;2.860;2023-07-31T04:52:35;11.40;;;2.97;;
78844;SDS011;68195;50.854;2.860;2023-07-31T04:55:00;7.63;;;3.38;;
78844;SDS011;68195;50.854;2.860;2023-07-31T04:57:28;6.55;;;2.60;;
78844;SDS011;68195;50.854;2.860;2023-07-31T04:59:56;7.18;;;3.40;;
78844;SDS011;68195;50.854;2.860;2023-07-31T05:02:21;6.10;;;3.17;;
78844;SDS011;68195;50.854;2.860;2023-07-31T05:04:47;6.85;;;2.53;;
78844;SDS011;68195;50.854;2.860;2023-07-31T05:07:12;4.82;;;3.25;;
78844;SDS011;68195;50.854;2.860;2023-07-31T05:09:40;6.57;;;3.30;;
78844;SDS011;68195;50.854;2.860;2023-07-31T05:12:05;6.20;;;2.97;;
78844;SDS011;68195;50.854;2.860;2023-07-31T05:14:31;6.80;;;3.05;;
78844;SDS011;68195;50.854;2.860;2023-07-31T05:16:57;6.22;;;3.03;;
78844;SDS011;68195;50.854;2.860;2023-07-31T05:19:22;5.93;;;3.25;;
78844;SDS011;68195;50.854;2.860;2023-07-31T05:21:47;7.55;;;3.17;;
78844;SDS011;68195;50.854;2.860;2023-07-31T05:24:13;7.25;;;3.47;;
78844;SDS011;68195;50.854;2.860;2023-07-31T05:26:38;5.28;;;3.13;;
78844;SDS011;68195;50.854;2.860;2023-07-31T05:29:08;8.43;;;2.70;;
78844;SDS011;68195;50.854;2.860;2023-07-31T05:31:36;5.05;;;3.13;;
78844;SDS011;68195;50.854;2.860;2023-07-31T05:34:03;4.40;;;3.15;;
78844;SDS011;68195;50.854;2.860;2023-07-31T05:36:28;9.27;;;3.03;;
78844;SDS011;68195;50.854;2.860;2023-07-31T05:38:54;7.28;;;3.58;;
78844;SDS011;68195;50.854;2.860;2023-07-31T05:41:19;9.30;;;3.85;;
78844;SDS011;68195;50.854;2.860;2023-07-31T05:43:47;8.18;;;3.45;;
78844;SDS011;68195;50.854;2.860;2023-07-31T05:46:12;5.07;;;2.80;;
78844;SDS011;68195;50.854;2.860;2023-07-31T05:48:38;5.38;;;2.47;;
78844;SDS011;68195;50.854;2.860;2023-07-31T05:51:06;7.45;;;3.28;;
78844;SDS011;68195;50.854;2.860;2023-07-31T05:53:34;8.82;;;2.90;;
78844;SDS011;68195;50.854;2.860;2023-07-31T05:56:01;8.80;;;3.53;;
78844;SDS011;68195;50.854;2.860;2023-07-31T05:58:26;9.30;;;3.35;;
78844;SDS011;68195;50.854;2.860;2023-07-31T06:00:51;7.15;;;2.63;;
78844;SDS011;68195;50.854;2.860;2023-07-31T06:03:17;7.03;;;2.70;;
78844;SDS011;68195;50.854;2.860;2023-07-31T06:05:45;6.10;;;3.50;;
78844;SDS011;68195;50.854;2.860;2023-07-31T06:08:10;4.70;;;2.47;;
78844;SDS011;68195;50.854;2.860;2023-07-31T06:10:38;6.30;;;2.95;;
78844;SDS011;68195;50.854;2.860;2023-07-31T06:13:03;7.03;;;3.17;;
78844;SDS011;68195;50.854;2.860;2023-07-31T06:15:29;13.90;;;3.05;;
78844;SDS011;68195;50.854;2.860;2023-07-31T06:17:54;8.70;;;3.15;;
78844;SDS011;68195;50.854;2.860;2023-07-31T06:20:19;5.10;;;2.83;;
78844;SDS011;68195;50.854;2.860;2023-07-31T06:22:47;9.25;;;2.80;;
78844;SDS011;68195;50.854;2.860;2023-07-31T06:25:15;6.43;;;2.30;;
78844;SDS011;68195;50.854;2.860;2023-07-31T06:27:43;5.10;;;2.33;;
78844;SDS011;68195;50.854;2.860;2023-07-31T06:30:11;5.18;;;2.58;;
78844;SDS011;68195;50.854;2.860;2023-07-31T06:32:36;9.38;;;3.42;;
78844;SDS011;68195;50.854;2.860;2023-07-31T06:35:02;4.95;;;2.60;;
78844;SDS011;68195;50.854;2.860;2023-07-31T06:37:27;3.83;;;2.22;;
78844;SDS011;68195;50.854;2.860;2023-07-31T06:39:55;4.80;;;2.65;;
78844;SDS011;68195;50.854;2.860;2023-07-31T06:42:21;6.35;;;2.15;;
78844;SDS011;68195;50.854;2.860;2023-07-31T06:44:48;5.97;;;2.13;;
78844;SDS011;68195;50.854;2.860;2023-07-31T06:47:14;5.43;;;2.80;;
78844;SDS011;68195;50.854;2.860;2023-07-31T06:49:39;3.33;;;2.20;;
78844;SDS011;68195;50.854;2.860;2023-07-31T06:52:07;5.10;;;2.30;;
78844;SDS011;68195;50.854;2.860;2023-07-31T06:54:33;4.80;;;2.20;;
78844;SDS011;68195;50.854;2.860;2023-07-31T06:57:03;5.65;;;2.05;;
78844;SDS011;68195;50.854;2.860;2023-07-31T06:59:29;4.22;;;2.20;;
78844;SDS011;68195;50.854;2.860;2023-07-31T07:01:54;5.38;;;2.58;;
78844;SDS011;68195;50.854;2.860;2023-07-31T07:04:20;4.97;;;2.90;;
78844;SDS011;68195;50.854;2.860;2023-07-31T07:06:45;4.50;;;2.28;;
78844;SDS011;68195;50.854;2.860;2023-07-31T07:09:10;4.90;;;2.50;;
78844;SDS011;68195;50.854;2.860;2023-07-31T07:11:38;4.30;;;2.28;;
78844;SDS011;68195;50.854;2.860;2023-07-31T07:14:08;3.15;;;2.00;;
78844;SDS011;68195;50.854;2.860;2023-07-31T07:16:35;4.90;;;2.55;;
78844;SDS011;68195;50.854;2.860;2023-07-31T07:19:02;4.88;;;2.67;;
78844;SDS011;68195;50.854;2.860;2023-07-31T07:21:28;3.63;;;2.13;;
78844;SDS011;68195;50.854;2.860;2023-07-31T07:23:56;6.45;;;2.58;;
78844;SDS011;68195;50.854;2.860;2023-07-31T07:26:21;2.83;;;2.03;;
78844;SDS011;68195;50.854;2.860;2023-07-31T07:28:49;3.72;;;2.22;;
78844;SDS011;68195;50.854;2.860;2023-07-31T07:31:14;4.70;;;2.20;;
78844;SDS011;68195;50.854;2.860;2023-07-31T07:33:40;2.92;;;2.10;;
78844;SDS011;68195;50.854;2.860;2023-07-31T07:36:08;4.45;;;2.65;;
78844;SDS011;68195;50.854;2.860;2023-07-31T07:38:37;4.25;;;2.63;;
78844;SDS011;68195;50.854;2.860;2023-07-31T07:41:06;2.50;;;1.83;;
78844;SDS011;68195;50.854;2.860;2023-07-31T07:43:31;3.67;;;2.28;;
78844;SDS011;68195;50.854;2.860;2023-07-31T07:45:59;3.65;;;2.13;;
78844;SDS011;68195;50.854;2.860;2023-07-31T07:48:27;5.10;;;2.42;;
78844;SDS011;68195;50.854;2.860;2023-07-31T07:50:52;5.43;;;2.38;;
78844;SDS011;68195;50.854;2.860;2023-07-31T07:53:20;3.28;;;1.85;;
78844;SDS011;68195;50.854;2.860;2023-07-31T07:55:47;2.97;;;2.03;;
78844;SDS011;68195;50.854;2.860;2023-07-31T07:58:13;4.28;;;1.85;;
78844;SDS011;68195;50.854;2.860;2023-07-31T08:00:40;3.78;;;2.05;;
78844;SDS011;68195;50.854;2.860;2023-07-31T08:03:06;5.78;;;2.35;;
78844;SDS011;68195;50.854;2.860;2023-07-31T08:05:34;3.42;;;1.90;;
78844;SDS011;68195;50.854;2.860;2023-07-31T08:07:59;3.10;;;1.85;;
78844;SDS011;68195;50.854;2.860;2023-07-31T08:10:27;3.03;;;2.30;;
78844;SDS011;68195;50.854;2.860;2023-07-31T08:12:52;3.47;;;2.47;;
78844;SDS011;68195;50.854;2.860;2023-07-31T08:15:18;3.80;;;2.40;;
78844;SDS011;68195;50.854;2.860;2023-07-31T08:17:47;3.58;;;2.15;;
78844;SDS011;68195;50.854;2.860;2023-07-31T08:20:12;3.35;;;2.10;;
78844;SDS011;68195;50.854;2.860;2023-07-31T08:22:37;3.17;;;2.25;;
78844;SDS011;68195;50.854;2.860;2023-07-31T08:25:03;3.28;;;2.17;;
78844;SDS011;68195;50.854;2.860;2023-07-31T08:27:31;3.25;;;2.15;;
78844;SDS011;68195;50.854;2.860;2023-07-31T08:29:57;3.42;;;2.35;;
78844;SDS011;68195;50.854;2.860;2023-07-31T08:32:22;2.85;;;2.15;;
78844;SDS011;68195;50.854;2.860;2023-07-31T08:34:50;3.30;;;2.35;;
78844;SDS011;68195;50.854;2.860;2023-07-31T08:37:18;5.45;;;2.20;;
78844;SDS011;68195;50.854;2.860;2023-07-31T08:39:44;3.70;;;2.03;;
78844;SDS011;68195;50.854;2.860;2023-07-31T08:44:39;4.90;;;2.70;;
78844;SDS011;68195;50.854;2.860;2023-07-31T08:47:08;4.05;;;2.33;;
78844;SDS011;68195;50.854;2.860;2023-07-31T08:49:34;4.55;;;2.78;;
78844;SDS011;68195;50.854;2.860;2023-07-31T08:52:05;3.80;;;2.78;;
78844;SDS011;68195;50.854;2.860;2023-07-31T08:54:31;5.72;;;3.00;;
78844;SDS011;68195;50.854;2.860;2023-07-31T08:57:01;5.28;;;3.05;;
78844;SDS011;68195;50.854;2.860;2023-07-31T08:59:30;6.55;;;2.83;;
78844;SDS011;68195;50.854;2.860;2023-07-31T09:01:57;5.85;;;3.53;;
78844;SDS011;68195;50.854;2.860;2023-07-31T09:04:30;5.43;;;3.45;;
78844;SDS011;68195;50.854;2.860;2023-07-31T09:07:01;7.50;;;3.88;;
78844;SDS011;68195;50.854;2.860;2023-07-31T09:09:29;5.88;;;3.13;;
78844;SDS011;68195;50.854;2.860;2023-07-31T09:11:57;7.05;;;3.33;;
78844;SDS011;68195;50.854;2.860;2023-07-31T09:14:24;6.88;;;3.35;;
78844;SDS011;68195;50.854;2.860;2023-07-31T09:16:56;5.07;;;3.47;;
78844;SDS011;68195;50.854;2.860;2023-07-31T09:19:29;4.70;;;2.97;;
78844;SDS011;68195;50.854;2.860;2023-07-31T09:22:02;5.72;;;3.58;;
78844;SDS011;68195;50.854;2.860;2023-07-31T09:24:28;5.75;;;3.67;;
78844;SDS011;68195;50.854;2.860;2023-07-31T09:26:55;5.28;;;3.35;;
78844;SDS011;68195;50.854;2.860;2023-07-31T09:29:22;8.27;;;4.03;;
78844;SDS011;68195;50.854;2.860;2023-07-31T09:31:48;6.35;;;3.28;;
78844;SDS011;68195;50.854;2.860;2023-07-31T09:34:13;5.68;;;2.80;;
78844;SDS011;68195;50.854;2.860;2023-07-31T09:39:08;7.80;;;4.00;;
78844;SDS011;68195;50.854;2.860;2023-07-31T09:41:36;4.40;;;3.25;;
78844;SDS011;68195;50.854;2.860;2023-07-31T09:44:05;6.78;;;3.30;;
78844;SDS011;68195;50.854;2.860;2023-07-31T09:46:32;6.72;;;3.55;;
78844;SDS011;68195;50.854;2.860;2023-07-31T09:49:09;6.22;;;3.58;;
78844;SDS011;68195;50.854;2.860;2023-07-31T09:51:39;8.25;;;3.80;;
78844;SDS011;68195;50.854;2.860;2023-07-31T09:54:16;8.25;;;4.07;;
78844;SDS011;68195;50.854;2.860;2023-07-31T09:56:45;6.53;;;4.30;;
78844;SDS011;68195;50.854;2.860;2023-07-31T09:59:17;6.88;;;3.70;;
78844;SDS011;68195;50.854;2.860;2023-07-31T10:01:46;6.20;;;3.65;;
78844;SDS011;68195;50.854;2.860;2023-07-31T10:04:16;6.50;;;3.60;;
78844;SDS011;68195;50.854;2.860;2023-07-31T10:06:45;7.00;;;3.10;;
78844;SDS011;68195;50.854;2.860;2023-07-31T10:09:13;5.50;;;3.13;;
78844;SDS011;68195;50.854;2.860;2023-07-31T10:11:42;6.43;;;3.03;;
78844;SDS011;68195;50.854;2.860;2023-07-31T10:14:15;6.78;;;2.83;;
78844;SDS011;68195;50.854;2.860;2023-07-31T10:16:43;7.60;;;3.47;;
78844;SDS011;68195;50.854;2.860;2023-07-31T10:19:12;6.90;;;3.05;;
78844;SDS011;68195;50.854;2.860;2023-07-31T10:21:39;7.55;;;2.92;;
78844;SDS011;68195;50.854;2.860;2023-07-31T10:24:07;8.18;;;3.20;;
78844;SDS011;68195;50.854;2.860;2023-07-31T10:26:36;6.07;;;3.00;;
78844;SDS011;68195;50.854;2.860;2023-07-31T10:29:06;6.13;;;2.72;;
78844;SDS011;68195;50.854;2.860;2023-07-31T10:31:32;4.43;;;3.30;;
78844;SDS011;68195;50.854;2.860;2023-07-31T10:33:59;6.38;;;3.20;;
78844;SDS011;68195;50.854;2.860;2023-07-31T10:36:25;7.72;;;3.03;;
78844;SDS011;68195;50.854;2.860;2023-07-31T10:38:52;5.43;;;3.15;;
78844;SDS011;68195;50.854;2.860;2023-07-31T10:41:17;7.97;;;3.33;;
78844;SDS011;68195;50.854;2.860;2023-07-31T10:43:43;4.35;;;2.72;;
78844;SDS011;68195;50.854;2.860;2023-07-31T10:46:11;5.50;;;2.83;;
78844;SDS011;68195;50.854;2.860;2023-07-31T10:48:38;5.57;;;2.88;;
78844;SDS011;68195;50.854;2.860;2023-07-31T10:51:09;8.65;;;2.92;;
78844;SDS011;68195;50.854;2.860;2023-07-31T10:53:45;5.00;;;2.72;;
78844;SDS011;68195;50.854;2.860;2023-07-31T10:58:42;5.40;;;3.10;;
78844;SDS011;68195;50.854;2.860;2023-07-31T11:01:11;6.32;;;3.15;;
78844;SDS011;68195;50.854;2.860;2023-07-31T11:03:49;7.95;;;3.67;;
78844;SDS011;68195;50.854;2.860;2023-07-31T11:06:18;5.10;;;2.80;;
78844;SDS011;68195;50.854;2.860;2023-07-31T11:08:47;4.10;;;3.17;;
78844;SDS011;68195;50.854;2.860;2023-07-31T11:11:15;6.22;;;2.75;;
78844;SDS011;68195;50.854;2.860;2023-07-31T11:13:46;3.13;;;2.20;;
78844;SDS011;68195;50.854;2.860;2023-07-31T11:16:15;4.50;;;2.90;;
78844;SDS011;68195;50.854;2.860;2023-07-31T11:18:43;4.00;;;2.28;;
78844;SDS011;68195;50.854;2.860;2023-07-31T11:21:16;6.13;;;3.28;;
78844;SDS011;68195;50.854;2.860;2023-07-31T11:23:47;5.40;;;2.90;;
78844;SDS011;68195;50.854;2.860;2023-07-31T11:26:19;5.68;;;3.40;;
78844;SDS011;68195;50.854;2.860;2023-07-31T11:28:48;6.15;;;2.95;;
78844;SDS011;68195;50.854;2.860;2023-07-31T11:31:15;5.82;;;3.35;;
78844;SDS011;68195;50.854;2.860;2023-07-31T11:33:41;5.88;;;3.70;;
78844;SDS011;68195;50.854;2.860;2023-07-31T11:36:13;10.32;;;4.03;;
78844;SDS011;68195;50.854;2.860;2023-07-31T11:38:40;5.80;;;3.15;;
78844;SDS011;68195;50.854;2.860;2023-07-31T11:41:05;4.80;;;3.08;;
78844;SDS011;68195;50.854;2.860;2023-07-31T11:43:33;4.43;;;2.72;;
78844;SDS011;68195;50.854;2.860;2023-07-31T11:46:04;5.75;;;2.92;;
78844;SDS011;68195;50.854;2.860;2023-07-31T11:48:36;7.03;;;2.95;;
78844;SDS011;68195;50.854;2.860;2023-07-31T11:51:02;5.63;;;2.72;;
78844;SDS011;68195;50.854;2.860;2023-07-31T11:56:19;4.63;;;2.78;;
78844;SDS011;68195;50.854;2.860;2023-07-31T11:58:51;5.03;;;3.13;;
78844;SDS011;68195;50.854;2.860;2023-07-31T12:01:23;5.40;;;2.80;;
78844;SDS011;68195;50.854;2.860;2023-07-31T12:03:49;4.68;;;2.90;;
78844;SDS011;68195;50.854;2.860;2023-07-31T12:06:18;3.88;;;3.15;;
78844;SDS011;68195;50.854;2.860;2023-07-31T12:08:48;4.93;;;3.58;;
78844;SDS011;68195;50.854;2.860;2023-07-31T12:11:16;7.22;;;3.30;;
78844;SDS011;68195;50.854;2.860;2023-07-31T12:13:43;5.88;;;2.97;;
78844;SDS011;68195;50.854;2.860;2023-07-31T12:16:08;5.03;;;3.47;;
78844;SDS011;68195;50.854;2.860;2023-07-31T12:18:36;6.93;;;4.03;;
78844;SDS011;68195;50.854;2.860;2023-07-31T12:21:06;4.22;;;3.22;;
78844;SDS011;68195;50.854;2.860;2023-07-31T12:23:34;4.88;;;3.08;;
78844;SDS011;68195;50.854;2.860;2023-07-31T12:28:37;5.68;;;3.63;;
78844;SDS011;68195;50.854;2.860;2023-07-31T12:31:21;4.82;;;3.00;;
78844;SDS011;68195;50.854;2.860;2023-07-31T12:33:48;5.05;;;3.47;;
78844;SDS011;68195;50.854;2.860;2023-07-31T12:36:21;5.25;;;3.08;;
78844;SDS011;68195;50.854;2.860;2023-07-31T12:38:48;6.05;;;2.78;;
78844;SDS011;68195;50.854;2.860;2023-07-31T12:41:15;5.20;;;2.65;;
78844;SDS011;68195;50.854;2.860;2023-07-31T12:43:41;4.45;;;2.88;;
78844;SDS011;68195;50.854;2.860;2023-07-31T12:46:07;3.55;;;2.72;;
78844;SDS011;68195;50.854;2.860;2023-07-31T12:48:33;4.88;;;2.67;;
78844;SDS011;68195;50.854;2.860;2023-07-31T12:50:59;3.13;;;2.10;;
78844;SDS011;68195;50.854;2.860;2023-07-31T12:53:25;3.22;;;2.03;;
78844;SDS011;68195;50.854;2.860;2023-07-31T12:55:50;3.10;;;1.80;;
78844;SDS011;68195;50.854;2.860;2023-07-31T12:58:16;3.10;;;1.52;;
78844;SDS011;68195;50.854;2.860;2023-07-31T13:00:42;2.13;;;1.38;;
78844;SDS011;68195;50.854;2.860;2023-07-31T13:03:07;3.40;;;1.80;;
78844;SDS011;68195;50.854;2.860;2023-07-31T13:05:35;2.95;;;1.40;;
78844;SDS011;68195;50.854;2.860;2023-07-31T13:08:01;2.80;;;1.48;;
78844;SDS011;68195;50.854;2.860;2023-07-31T13:10:28;3.42;;;1.73;;
78844;SDS011;68195;50.854;2.860;2023-07-31T13:12:55;3.08;;;1.42;;
78844;SDS011;68195;50.854;2.860;2023-07-31T13:15:20;2.28;;;1.60;;
78844;SDS011;68195;50.854;2.860;2023-07-31T13:17:48;1.95;;;1.23;;
78844;SDS011;68195;50.854;2.860;2023-07-31T13:20:14;2.55;;;1.60;;
78844;SDS011;68195;50.854;2.860;2023-07-31T13:22:39;1.83;;;1.30;;
78844;SDS011;68195;50.854;2.860;2023-07-31T13:25:05;1.08;;;0.90;;
78844;SDS011;68195;50.854;2.860;2023-07-31T13:27:31;1.17;;;0.82;;
78844;SDS011;68195;50.854;2.860;2023-07-31T13:29:58;1.27;;;1.10;;
78844;SDS011;68195;50.854;2.860;2023-07-31T13:32:24;1.60;;;0.90;;
78844;SDS011;68195;50.854;2.860;2023-07-31T13:34:49;1.70;;;1.10;;
78844;SDS011;68195;50.854;2.860;2023-07-31T13:37:15;1.13;;;0.82;;
78844;SDS011;68195;50.854;2.860;2023-07-31T13:39:41;1.45;;;0.75;;
78844;SDS011;68195;50.854;2.860;2023-07-31T13:42:07;2.42;;;0.90;;
78844;SDS011;68195;50.854;2.860;2023-07-31T13:44:40;1.27;;;0.70;;
78844;SDS011;68195;50.854;2.860;2023-07-31T13:47:06;1.38;;;0.90;;
78844;SDS011;68195;50.854;2.860;2023-07-31T13:49:33;1.27;;;0.93;;
78844;SDS011;68195;50.854;2.860;2023-07-31T13:51:58;1.23;;;0.80;;
78844;SDS011;68195;50.854;2.860;2023-07-31T13:54:24;1.33;;;0.68;;
78844;SDS011;68195;50.854;2.860;2023-07-31T13:56:50;1.52;;;0.95;;
78844;SDS011;68195;50.854;2.860;2023-07-31T13:59:16;1.15;;;0.73;;
78844;SDS011;68195;50.854;2.860;2023-07-31T14:01:43;1.15;;;0.70;;
78844;SDS011;68195;50.854;2.860;2023-07-31T14:04:09;0.88;;;0.60;;
78844;SDS011;68195;50.854;2.860;2023-07-31T14:06:34;0.88;;;0.65;;
78844;SDS011;68195;50.854;2.860;2023-07-31T14:09:04;1.20;;;0.52;;
78844;SDS011;68195;50.854;2.860;2023-07-31T14:11:33;0.98;;;0.82;;
78844;SDS011;68195;50.854;2.860;2023-07-31T14:14:01;0.68;;;0.55;;
78844;SDS011;68195;50.854;2.860;2023-07-31T14:16:31;0.90;;;0.60;;
78844;SDS011;68195;50.854;2.860;2023-07-31T14:18:57;0.52;;;0.50;;
78844;SDS011;68195;50.854;2.860;2023-07-31T14:21:25;0.40;;;0.40;;
78844;SDS011;68195;50.854;2.860;2023-07-31T14:23:51;0.80;;;0.70;;
78844;SDS011;68195;50.854;2.860;2023-07-31T14:26:19;2.10;;;0.75;;
78844;SDS011;68195;50.854;2.860;2023-07-31T14:28:49;0.80;;;0.40;;
78844;SDS011;68195;50.854;2.860;2023-07-31T14:31:17;0.55;;;0.35;;
78844;SDS011;68195;50.854;2.860;2023-07-31T14:33:50;1.15;;;0.80;;
78844;SDS011;68195;50.854;2.860;2023-07-31T14:36:15;3.35;;;0.70;;
78844;SDS011;68195;50.854;2.860;2023-07-31T14:38:41;2.45;;;0.43;;
78844;SDS011;68195;50.854;2.860;2023-07-31T14:41:06;0.77;;;0.60;;
78844;SDS011;68195;50.854;2.860;2023-07-31T14:43:32;1.45;;;0.50;;
78844;SDS011;68195;50.854;2.860;2023-07-31T14:45:57;0.55;;;0.40;;
78844;SDS011;68195;50.854;2.860;2023-07-31T14:48:24;0.65;;;0.50;;
78844;SDS011;68195;50.854;2.860;2023-07-31T14:50:50;2.67;;;0.55;;
78844;SDS011;68195;50.854;2.860;2023-07-31T14:53:16;0.45;;;0.45;;
78844;SDS011;68195;50.854;2.860;2023-07-31T14:55:41;0.40;;;0.38;;
78844;SDS011;68195;50.854;2.860;2023-07-31T14:58:07;0.73;;;0.43;;
78844;SDS011;68195;50.854;2.860;2023-07-31T15:00:32;0.57;;;0.52;;
78844;SDS011;68195;50.854;2.860;2023-07-31T15:02:58;1.98;;;0.55;;